createdAt,value
2018-09-08T00:01:41.034Z,17.40
2018-09-08T00:04:08.036Z,17.40
2018-09-08T00:06:34.298Z,17.40
2018-09-08T00:09:01.356Z,17.40
2018-09-08T00:11:28.344Z,17.50
2018-09-08T00:13:54.592Z,17.40
2018-09-08T00:16:27.006Z,17.40
2018-09-08T00:19:00.176Z,17.30
2018-09-08T00:21:32.594Z,17.30
2018-09-08T00:24:05.002Z,17.30
2018-09-08T00:26:33.149Z,17.20
2018-09-08T00:28:59.417Z,17.20
2018-09-08T00:31:26.675Z,17.20
2018-09-08T00:33:52.925Z,17.20
2018-09-08T00:36:19.912Z,17.20
2018-09-08T00:38:46.206Z,17.20
2018-09-08T00:41:12.470Z,17.20
2018-09-08T00:43:38.741Z,17.20
2018-09-08T00:46:05.041Z,17.20
2018-09-08T00:48:41.311Z,17.20
2018-09-08T00:51:07.609Z,17.10
2018-09-08T00:53:33.887Z,17.10
2018-09-08T00:56:00.129Z,17.10
2018-09-08T00:58:26.425Z,17.10
2018-09-08T01:00:52.720Z,17.00
2018-09-08T01:03:19.732Z,17.00
2018-09-08T01:05:45.990Z,16.90
2018-09-08T01:08:12.269Z,16.90
2018-09-08T01:10:38.617Z,16.90
2018-09-08T01:13:04.892Z,16.90
2018-09-08T01:15:31.903Z,16.80
2018-09-08T01:17:58.149Z,16.80
2018-09-08T01:20:24.425Z,16.80
2018-09-08T01:22:50.710Z,16.70
2018-09-08T01:25:16.981Z,16.70
2018-09-08T01:27:43.260Z,16.60
2018-09-08T01:30:09.501Z,16.50
2018-09-08T01:32:35.740Z,16.60
2018-09-08T01:35:02.057Z,16.60
2018-09-08T01:37:28.315Z,16.60
2018-09-08T01:39:55.320Z,16.30
2018-09-08T01:42:21.593Z,16.30
2018-09-08T01:44:48.581Z,16.10
2018-09-08T01:47:14.866Z,16.10
2018-09-08T01:49:41.889Z,16.00
2018-09-08T01:52:08.165Z,16.00
2018-09-08T01:54:34.397Z,15.90
2018-09-08T01:57:00.716Z,15.80
2018-09-08T01:59:27.726Z,15.60
2018-09-08T02:01:54.002Z,15.60
2018-09-08T02:04:20.270Z,15.60
2018-09-08T02:06:46.519Z,15.50
2018-09-08T02:09:12.787Z,15.50
2018-09-08T02:11:39.798Z,15.50
2018-09-08T02:14:06.072Z,15.50
2018-09-08T02:16:32.353Z,15.50
2018-09-08T02:18:58.648Z,15.60
2018-09-08T02:21:24.929Z,15.50
2018-09-08T02:23:51.179Z,15.40
2018-09-08T02:26:18.251Z,15.20
2018-09-08T02:28:44.518Z,15.20
2018-09-08T02:31:10.776Z,15.20
2018-09-08T02:33:37.801Z,15.00
2018-09-08T02:36:04.067Z,15.00
2018-09-08T02:38:31.066Z,14.90
2018-09-08T02:40:57.340Z,14.90
2018-09-08T02:43:23.580Z,14.80
2018-09-08T02:45:50.602Z,14.80
2018-09-08T02:48:16.857Z,14.80
2018-09-08T02:50:42.933Z,14.70
2018-09-08T02:53:08.984Z,14.60
2018-09-08T02:55:35.095Z,14.60
2018-09-08T02:58:01.143Z,14.60
2018-09-08T03:00:27.214Z,14.50
2018-09-08T03:02:53.297Z,14.50
2018-09-08T03:05:19.342Z,14.30
2018-09-08T03:07:46.202Z,14.20
2018-09-08T03:10:12.262Z,14.20
2018-09-08T03:12:38.357Z,14.20
2018-09-08T03:15:04.441Z,14.20
2018-09-08T03:17:30.521Z,14.10
2018-09-08T03:19:56.588Z,14.10
2018-09-08T03:22:22.673Z,14.10
2018-09-08T03:24:48.804Z,14.00
2018-09-08T03:27:14.877Z,14.00
2018-09-08T03:29:41.698Z,13.70
2018-09-08T03:32:07.728Z,13.70
2018-09-08T03:34:33.792Z,13.70
2018-09-08T03:36:59.832Z,13.60
2018-09-08T03:39:25.951Z,13.60
2018-09-08T03:41:52.039Z,13.50
2018-09-08T03:44:18.090Z,13.50
2018-09-08T03:46:44.251Z,13.50
2018-09-08T03:49:10.310Z,13.40
2018-09-08T03:51:36.385Z,13.40
2018-09-08T03:54:02.447Z,13.40
2018-09-08T03:56:28.576Z,13.40
2018-09-08T03:58:54.643Z,13.50
2018-09-08T04:01:21.458Z,13.40
2018-09-08T04:03:47.765Z,13.30
2018-09-08T04:06:14.002Z,13.20
2018-09-08T04:08:40.344Z,13.20
2018-09-08T04:11:06.624Z,13.20
2018-09-08T04:13:32.972Z,13.00
2018-09-08T04:15:59.227Z,12.90
2018-09-08T04:18:25.485Z,12.90
2018-09-08T04:20:51.754Z,12.80
2018-09-08T04:23:17.993Z,12.80
2018-09-08T04:25:44.910Z,12.90
2018-09-08T04:28:11.196Z,12.90
2018-09-08T04:33:11.151Z,12.80
2018-09-08T04:35:37.413Z,12.80
2018-09-08T04:38:03.739Z,12.80
2018-09-08T04:40:30.003Z,12.70
2018-09-08T04:42:56.257Z,12.50
2018-09-08T04:45:22.555Z,12.50
2018-09-08T04:47:48.797Z,12.40
2018-09-08T04:50:15.079Z,12.30
2018-09-08T04:52:41.357Z,12.30
2018-09-08T04:55:07.634Z,12.40
2018-09-08T04:57:34.621Z,12.40
2018-09-08T05:00:00.917Z,12.40
2018-09-08T05:02:27.239Z,12.40
2018-09-08T05:04:53.478Z,12.40
2018-09-08T05:07:20.467Z,12.40
2018-09-08T05:09:46.752Z,12.40
2018-09-08T05:12:13.002Z,12.50
2018-09-08T05:14:39.303Z,12.50
2018-09-08T05:17:05.577Z,12.60
2018-09-08T05:19:31.859Z,12.70
2018-09-08T05:21:58.130Z,12.70
2018-09-08T05:24:24.411Z,12.80
2018-09-08T05:26:50.674Z,12.80
2018-09-08T05:29:17.697Z,13.00
2018-09-08T05:31:43.954Z,13.00
2018-09-08T05:34:10.981Z,13.10
2018-09-08T05:36:37.267Z,13.10
2018-09-08T05:39:03.577Z,13.10
2018-09-08T05:41:29.829Z,13.10
2018-09-08T05:43:56.117Z,13.20
2018-09-08T05:46:22.379Z,13.20
2018-09-08T05:48:48.669Z,13.20
2018-09-08T05:51:14.957Z,13.30
2018-09-08T05:53:41.311Z,13.30
2018-09-08T05:56:07.592Z,13.30
2018-09-08T05:58:33.949Z,13.30
2018-09-08T06:01:00.150Z,13.30
2018-09-08T06:03:27.134Z,13.40
2018-09-08T06:05:53.406Z,13.40
2018-09-08T06:08:20.398Z,13.50
2018-09-08T06:10:46.669Z,13.50
2018-09-08T06:13:12.914Z,13.60
2018-09-08T06:15:39.260Z,13.70
2018-09-08T06:18:06.325Z,13.90
2018-09-08T06:20:32.569Z,13.90
2018-09-08T06:22:58.831Z,13.90
2018-09-08T06:25:25.238Z,14.00
2018-09-08T06:27:51.426Z,14.10
2018-09-08T06:30:18.461Z,14.30
2018-09-08T06:32:44.733Z,14.30
2018-09-08T06:35:11.117Z,14.30
2018-09-08T06:37:37.320Z,14.50
2018-09-08T06:40:03.612Z,14.60
2018-09-08T06:42:30.650Z,14.80
2018-09-08T06:44:57.732Z,14.90
2018-09-08T06:47:23.942Z,14.90
2018-09-08T06:49:51.462Z,15.00
2018-09-08T06:52:17.717Z,15.10
2018-09-08T06:54:43.989Z,15.30
2018-09-08T06:57:10.265Z,15.50
2018-09-08T06:59:36.564Z,15.90
2018-09-08T07:02:02.855Z,16.60
2018-09-08T07:04:29.152Z,16.70
2018-09-08T07:06:55.407Z,16.60
2018-09-08T07:09:22.423Z,16.40
2018-09-08T07:11:48.668Z,16.40
2018-09-08T07:14:14.950Z,16.80
2018-09-08T07:16:41.363Z,16.90
2018-09-08T07:19:08.366Z,17.00
2018-09-08T07:21:36.050Z,16.90
2018-09-08T07:24:06.051Z,16.80
2018-09-08T07:26:32.459Z,16.60
2018-09-08T07:28:58.725Z,16.70
2018-09-08T07:31:25.843Z,16.80
2018-09-08T07:33:52.906Z,17.00
2018-09-08T07:36:19.487Z,17.00
2018-09-08T07:38:48.340Z,17.10
2018-09-08T07:41:15.390Z,17.30
2018-09-08T07:43:42.403Z,17.40
2018-09-08T07:46:08.879Z,17.40
2018-09-08T07:48:34.986Z,17.60
2018-09-08T07:51:01.231Z,17.70
2018-09-08T07:53:28.302Z,17.90
2018-09-08T07:55:54.634Z,17.80
2018-09-08T07:58:21.620Z,18.30
2018-09-08T08:00:47.959Z,18.20
2018-09-08T08:03:14.212Z,19.70
2018-09-08T08:05:40.500Z,20.70
2018-09-08T08:08:06.757Z,20.40
2018-09-08T08:10:33.037Z,20.80
2018-09-08T08:13:00.053Z,21.70
2018-09-08T08:15:26.318Z,21.70
2018-09-08T08:17:53.360Z,25.50
2018-09-08T08:20:20.408Z,28.10
2018-09-08T08:22:47.421Z,29.70
2018-09-08T08:25:13.699Z,29.60
2018-09-08T08:27:39.956Z,30.80
2018-09-08T08:30:06.277Z,31.80
2018-09-08T08:32:32.542Z,32.20
2018-09-08T08:34:58.830Z,32.40
2018-09-08T08:37:25.126Z,31.60
2018-09-08T08:39:51.442Z,30.80
2018-09-08T08:42:17.702Z,30.00
2018-09-08T08:44:44.689Z,28.50
2018-09-08T08:47:11.737Z,28.50
2018-09-08T08:49:38.026Z,28.00
2018-09-08T08:52:30.472Z,27.20
2018-09-08T08:54:56.662Z,26.90
2018-09-08T08:57:23.817Z,27.10
2018-09-08T08:59:50.094Z,27.30
2018-09-08T09:02:16.409Z,27.40
2018-09-08T09:04:42.749Z,28.00
2018-09-08T09:07:09.076Z,28.20
2018-09-08T09:09:36.121Z,28.40
2018-09-08T09:12:02.405Z,28.40
2018-09-08T09:14:29.099Z,28.80
2018-09-08T09:16:54.980Z,28.50
2018-09-08T09:19:33.642Z,28.00
2018-09-08T09:22:27.054Z,27.70
2018-09-08T09:24:53.724Z,27.60
2018-09-08T09:27:20.581Z,27.50
2018-09-08T09:29:47.646Z,27.80
2018-09-08T09:32:14.673Z,27.90
2018-09-08T09:34:41.737Z,27.90
2018-09-08T09:37:08.875Z,28.10
2018-09-08T09:39:36.097Z,28.10
2018-09-08T09:42:02.535Z,27.80
2018-09-08T09:44:28.867Z,27.90
2018-09-08T09:46:55.182Z,27.50
2018-09-08T09:49:21.778Z,27.30
2018-09-08T09:51:48.113Z,27.10
2018-09-08T09:54:15.203Z,26.90
2018-09-08T09:56:43.485Z,26.90
2018-09-08T09:59:09.917Z,26.90
2018-09-08T10:01:36.240Z,26.90
2018-09-08T10:04:03.263Z,26.90
2018-09-08T10:06:32.994Z,26.90
2018-09-08T10:09:00.571Z,27.30
2018-09-08T10:11:26.972Z,26.60
2018-09-08T10:13:53.279Z,26.60
2018-09-08T10:16:19.565Z,26.70
2018-09-08T10:18:45.870Z,26.60
2018-09-08T10:21:12.122Z,27.00
2018-09-08T10:23:38.427Z,27.10
2018-09-08T10:26:04.777Z,26.80
2018-09-08T10:28:31.103Z,26.90
2018-09-08T10:30:57.418Z,27.00
2018-09-08T10:33:23.715Z,27.00
2018-09-08T10:35:50.417Z,27.30
2018-09-08T10:38:16.721Z,27.00
2018-09-08T10:40:43.013Z,26.90
2018-09-08T10:43:09.336Z,26.90
2018-09-08T10:45:35.654Z,26.90
2018-09-08T10:48:01.905Z,27.00
2018-09-08T10:50:28.198Z,26.90
2018-09-08T10:52:54.474Z,26.90
2018-09-08T10:55:22.276Z,26.80
2018-09-08T10:57:49.609Z,26.70
2018-09-08T11:00:22.804Z,26.40
2018-09-08T11:02:53.926Z,26.50
2018-09-08T11:05:24.374Z,26.00
2018-09-08T11:07:58.905Z,25.80
2018-09-08T11:10:28.523Z,26.00
2018-09-08T11:12:58.510Z,26.10
2018-09-08T11:15:27.734Z,26.50
2018-09-08T11:18:00.642Z,26.50
2018-09-08T11:20:27.897Z,26.50
2018-09-08T11:22:57.714Z,26.60
2018-09-08T11:25:28.527Z,26.50
2018-09-08T11:27:58.606Z,26.50
2018-09-08T11:30:29.492Z,26.30
2018-09-08T11:33:02.820Z,26.40
2018-09-08T11:38:13.488Z,25.70
2018-09-08T11:40:43.070Z,25.70
2018-09-08T11:43:15.644Z,26.00
2018-09-08T11:45:45.946Z,25.70
2018-09-08T11:48:21.532Z,25.90
2018-09-08T11:50:55.969Z,25.90
2018-09-08T11:53:30.038Z,25.80
2018-09-08T11:56:03.049Z,25.90
2018-09-08T11:58:35.786Z,25.60
2018-09-08T12:01:10.562Z,25.60
2018-09-08T12:03:43.890Z,25.60
2018-09-08T12:11:35.602Z,25.70
2018-09-08T12:14:10.603Z,25.60
2018-09-08T12:16:42.435Z,25.60
2018-09-08T12:19:12.486Z,25.90
2018-09-08T12:21:54.415Z,26.30
2018-09-08T12:24:26.115Z,26.30
2018-09-08T12:27:09.573Z,26.20
2018-09-08T12:29:44.672Z,26.10
2018-09-08T12:32:16.928Z,26.30
2018-09-08T12:34:43.539Z,26.10
2018-09-08T12:37:10.975Z,26.00
2018-09-08T12:39:40.817Z,26.20
2018-09-08T12:42:08.238Z,26.10
2018-09-08T12:44:36.447Z,25.90
2018-09-08T12:47:03.988Z,26.00
2018-09-08T12:49:38.995Z,26.10
2018-09-08T12:52:16.435Z,26.10
2018-09-08T12:54:43.617Z,26.30
2018-09-08T12:57:19.465Z,26.10
2018-09-08T12:59:46.484Z,26.10
2018-09-08T13:02:19.638Z,25.90
2018-09-08T13:04:47.455Z,26.00
2018-09-08T13:07:13.882Z,26.20
2018-09-08T13:09:40.360Z,25.80
2018-09-08T13:12:06.655Z,25.30
2018-09-08T13:14:35.946Z,25.20
2018-09-08T13:17:03.222Z,25.10
2018-09-08T13:19:30.073Z,25.40
2018-09-08T13:21:57.962Z,25.60
2018-09-08T13:24:24.961Z,25.70
2018-09-08T13:26:52.114Z,25.60
2018-09-08T13:29:19.360Z,25.60
2018-09-08T13:31:46.402Z,25.50
2018-09-08T13:34:13.617Z,25.50
2018-09-08T13:36:42.496Z,25.70
2018-09-08T13:39:09.351Z,25.70
2018-09-08T13:41:35.650Z,25.60
2018-09-08T13:44:04.274Z,25.60
2018-09-08T13:46:30.598Z,25.60
2018-09-08T13:48:56.891Z,25.50
2018-09-08T13:51:23.151Z,25.60
2018-09-08T13:53:49.447Z,25.30
2018-09-08T13:56:15.708Z,25.30
2018-09-08T13:58:42.755Z,25.40
2018-09-08T14:01:09.805Z,25.30
2018-09-08T14:03:36.863Z,25.40
2018-09-08T14:06:03.146Z,25.30
2018-09-08T14:08:29.451Z,25.50
2018-09-08T14:10:55.761Z,25.50
2018-09-08T14:13:22.066Z,25.60
2018-09-08T14:15:49.075Z,25.50
2018-09-08T14:18:15.380Z,25.50
2018-09-08T14:20:41.626Z,25.70
2018-09-08T14:23:07.978Z,25.70
2018-09-08T14:25:34.303Z,25.50
2018-09-08T14:28:02.840Z,25.20
2018-09-08T14:30:29.747Z,25.30
2018-09-08T14:32:56.793Z,25.10
2018-09-08T14:35:23.193Z,25.10
2018-09-08T14:37:49.641Z,24.90
2018-09-08T14:40:16.410Z,24.60
2018-09-08T14:42:42.692Z,24.50
2018-09-08T14:45:09.524Z,24.30
2018-09-08T14:47:35.958Z,24.10
2018-09-08T14:50:02.224Z,24.00
2018-09-08T14:52:28.465Z,23.90
2018-09-08T14:54:55.148Z,23.80
2018-09-08T14:57:23.245Z,23.80
2018-09-08T14:59:49.637Z,23.90
2018-09-08T15:02:16.685Z,23.80
2018-09-08T15:04:43.290Z,23.80
2018-09-08T15:07:10.624Z,23.90
2018-09-08T15:09:37.039Z,24.00
2018-09-08T15:12:03.476Z,24.10
2018-09-08T15:14:33.323Z,24.20
2018-09-08T15:17:00.704Z,24.40
2018-09-08T15:19:27.721Z,24.40
2018-09-08T15:21:56.539Z,24.50
2018-09-08T15:24:23.709Z,24.50
2018-09-08T15:26:52.272Z,24.60
2018-09-08T15:29:19.594Z,24.70
2018-09-08T15:31:45.981Z,24.70
2018-09-08T15:34:12.279Z,24.70
2018-09-08T15:36:39.069Z,24.70
2018-09-08T15:39:05.418Z,24.60
2018-09-08T15:41:31.674Z,24.40
2018-09-08T15:43:57.965Z,24.40
2018-09-08T15:46:24.351Z,24.40
2018-09-08T15:48:51.182Z,24.50
2018-09-08T15:51:17.493Z,24.60
2018-09-08T15:53:45.050Z,24.70
2018-09-08T15:56:13.085Z,24.60
2018-09-08T15:58:43.538Z,24.70
2018-09-08T16:01:09.820Z,24.70
2018-09-08T16:03:36.106Z,24.80
2018-09-08T16:06:03.218Z,24.80
2018-09-08T16:08:29.527Z,24.80
2018-09-08T16:10:55.854Z,24.70
2018-09-08T16:13:22.105Z,24.50
2018-09-08T16:15:48.399Z,24.40
2018-09-08T16:18:15.146Z,24.20
2018-09-08T16:20:43.235Z,24.10
2018-09-08T16:23:10.495Z,24.10
2018-09-08T16:25:36.843Z,24.00
2018-09-08T16:28:03.146Z,23.90
2018-09-08T16:30:29.459Z,23.90
2018-09-08T16:32:56.141Z,23.80
2018-09-08T16:35:22.432Z,23.80
2018-09-08T16:37:48.742Z,23.70
2018-09-08T16:40:14.984Z,23.90
2018-09-08T16:42:41.274Z,24.00
2018-09-08T16:45:07.551Z,24.00
2018-09-08T16:47:33.811Z,24.00
2018-09-08T16:50:00.420Z,23.80
2018-09-08T16:52:27.444Z,23.70
2018-09-08T16:54:53.699Z,23.70
2018-09-08T16:57:20.092Z,23.60
2018-09-08T16:59:46.371Z,23.50
2018-09-08T17:02:12.639Z,23.50
2018-09-08T17:04:38.934Z,23.30
2018-09-08T17:07:05.242Z,23.30
2018-09-08T17:09:31.788Z,23.20
2018-09-08T17:11:58.681Z,23.20
2018-09-08T17:14:26.018Z,23.00
2018-09-08T17:16:53.246Z,22.90
2018-09-08T17:19:19.638Z,22.90
2018-09-08T17:21:46.681Z,22.80
2018-09-08T17:24:13.045Z,22.80
2018-09-08T17:26:39.585Z,22.80
2018-09-08T17:29:06.331Z,22.80
2018-09-08T17:31:32.615Z,22.70
2018-09-08T17:33:58.929Z,22.60
2018-09-08T17:36:25.174Z,22.50
2018-09-08T17:38:52.742Z,22.50
2018-09-08T17:41:19.225Z,22.40
2018-09-08T17:43:46.262Z,22.30
2018-09-08T17:46:12.536Z,22.20
2018-09-08T17:48:38.827Z,22.00
2018-09-08T17:51:05.805Z,21.90
2018-09-08T17:53:32.887Z,21.80
2018-09-08T17:55:59.140Z,21.80
2018-09-08T17:58:26.267Z,21.70
2018-09-08T18:00:52.707Z,21.70
2018-09-08T18:03:19.034Z,21.60
2018-09-08T18:05:46.644Z,21.40
2018-09-08T18:08:13.064Z,21.40
2018-09-08T18:10:39.705Z,21.40
2018-09-08T18:13:06.034Z,21.30
2018-09-08T18:15:32.274Z,21.20
2018-09-08T18:17:58.598Z,21.10
2018-09-08T18:20:24.832Z,21.10
2018-09-08T18:22:51.101Z,21.00
2018-09-08T18:25:17.379Z,20.90
2018-09-08T18:27:43.628Z,20.90
2018-09-08T18:30:09.991Z,20.80
2018-09-08T18:32:40.785Z,20.90
2018-09-08T18:35:07.065Z,20.80
2018-09-08T18:37:33.676Z,20.80
2018-09-08T18:40:00.265Z,20.70
2018-09-08T18:42:27.304Z,20.50
2018-09-08T18:44:53.681Z,20.50
2018-09-08T18:47:20.469Z,20.50
2018-09-08T18:49:47.505Z,20.30
2018-09-08T18:52:13.782Z,20.30
2018-09-08T18:54:40.947Z,20.30
2018-09-08T18:57:07.277Z,20.30
2018-09-08T18:59:33.537Z,20.20
2018-09-08T19:02:00.565Z,20.00
2018-09-08T19:04:28.757Z,20.00
2018-09-08T19:06:55.309Z,20.00
2018-09-08T19:09:23.051Z,20.00
2018-09-08T19:11:49.294Z,20.00
2018-09-08T19:14:15.599Z,20.00
2018-09-08T19:16:41.845Z,19.90
2018-09-08T19:19:08.122Z,20.00
2018-09-08T19:21:34.364Z,19.90
2018-09-08T19:24:01.410Z,19.90
2018-09-08T19:26:27.637Z,19.90
2018-09-08T19:28:54.691Z,19.70
2018-09-08T19:31:21.727Z,19.60
2018-09-08T19:33:47.969Z,19.60
2018-09-08T19:36:15.265Z,19.50
2018-09-08T19:38:41.524Z,19.50
2018-09-08T19:41:07.771Z,19.50
2018-09-08T19:43:34.102Z,19.50
2018-09-08T19:46:03.692Z,19.40
2018-09-08T19:48:30.823Z,19.40
2018-09-08T19:50:58.357Z,19.30
2018-09-08T19:53:41.529Z,19.30
2018-09-08T19:56:07.926Z,19.30
2018-09-08T19:58:49.136Z,19.30
2018-09-08T20:01:15.417Z,19.30
2018-09-08T20:03:41.662Z,19.30
2018-09-08T20:06:07.892Z,19.20
2018-09-08T20:08:34.193Z,19.10
2018-09-08T20:11:01.202Z,19.00
2018-09-08T20:13:27.484Z,18.90
2018-09-08T20:15:53.753Z,18.90
2018-09-08T20:18:19.989Z,18.80
2018-09-08T20:20:46.251Z,18.80
2018-09-08T20:23:12.504Z,18.80
2018-09-08T20:25:39.509Z,18.70
2018-09-08T20:28:05.758Z,18.70
2018-09-08T20:30:32.050Z,18.70
2018-09-08T20:32:58.935Z,18.50
2018-09-08T20:35:26.372Z,18.50
2018-09-08T20:37:53.556Z,18.40
2018-09-08T20:40:21.897Z,18.50
2018-09-08T20:42:48.619Z,18.50
2018-09-08T20:45:14.909Z,18.40
2018-09-08T20:47:41.237Z,18.50
2018-09-08T20:50:08.287Z,18.40
2018-09-08T20:52:39.865Z,18.30
2018-09-08T20:55:08.949Z,18.30
2018-09-08T20:57:35.973Z,18.30
2018-09-08T21:00:03.414Z,18.20
2018-09-08T21:02:34.423Z,18.10
2018-09-08T21:05:03.774Z,18.10
2018-09-08T21:07:33.142Z,18.10
2018-09-08T21:10:05.225Z,18.10
2018-09-08T21:12:33.803Z,18.10
2018-09-08T21:15:03.727Z,18.10
2018-09-08T21:17:31.759Z,18.00
2018-09-08T21:19:59.043Z,17.90
2018-09-08T21:22:27.275Z,17.80
2018-09-08T21:24:53.934Z,17.80
2018-09-08T21:27:20.611Z,17.70
2018-09-08T21:29:50.820Z,17.60
2018-09-08T21:32:18.797Z,17.50
2018-09-08T21:34:51.714Z,17.50
2018-09-08T21:37:19.786Z,17.50
2018-09-08T21:39:51.123Z,17.40
2018-09-08T21:42:19.817Z,17.40
2018-09-08T21:44:49.337Z,17.40
2018-09-08T21:47:18.238Z,17.40
2018-09-08T21:49:45.935Z,17.50
2018-09-08T21:52:13.369Z,17.50
2018-09-08T21:54:40.253Z,17.50
2018-09-08T21:57:14.873Z,17.50
2018-09-08T21:59:41.865Z,17.40
2018-09-08T22:02:13.747Z,17.20
2018-09-08T22:04:42.754Z,17.20
2018-09-08T22:07:10.574Z,17.20
2018-09-08T22:09:37.895Z,17.20
2018-09-08T22:12:06.707Z,17.20
2018-09-08T22:14:33.229Z,17.20
2018-09-08T22:17:00.361Z,17.20
2018-09-08T22:19:30.276Z,17.30
2018-09-08T22:22:02.602Z,17.30
2018-09-08T22:24:28.949Z,17.30
2018-09-08T22:26:55.294Z,17.30
2018-09-08T22:29:21.570Z,17.20
2018-09-08T22:31:47.838Z,17.20
2018-09-08T22:34:14.822Z,17.10
2018-09-08T22:36:41.110Z,17.10
2018-09-08T22:39:08.101Z,17.00
2018-09-08T22:41:34.362Z,17.00
2018-09-08T22:44:00.609Z,17.00
2018-09-08T22:46:26.893Z,16.90
2018-09-08T22:48:53.162Z,16.90
2018-09-08T22:51:19.449Z,16.80
2018-09-08T22:53:45.682Z,16.80
2018-09-08T22:56:12.013Z,16.70
2018-09-08T22:58:39.009Z,16.80
2018-09-08T23:01:05.279Z,16.80
2018-09-08T23:03:31.573Z,16.80
2018-09-08T23:05:58.563Z,16.70
2018-09-08T23:08:24.830Z,16.70
2018-09-08T23:10:51.093Z,16.60
2018-09-08T23:13:18.098Z,16.60
2018-09-08T23:15:44.346Z,16.60
2018-09-08T23:18:10.626Z,16.60
2018-09-08T23:20:36.999Z,16.60
2018-09-08T23:23:03.235Z,16.60
2018-09-08T23:25:30.957Z,16.60
2018-09-08T23:27:59.063Z,16.50
2018-09-08T23:30:26.592Z,16.50
2018-09-08T23:32:52.893Z,16.50
2018-09-08T23:35:19.877Z,16.50
2018-09-08T23:37:46.603Z,16.40
2018-09-08T23:40:13.486Z,16.40
2018-09-08T23:42:40.545Z,16.30
2018-09-08T23:45:06.804Z,16.30
2018-09-08T23:47:33.825Z,16.20
2018-09-08T23:50:00.387Z,16.20
2018-09-08T23:52:26.714Z,16.20
2018-09-08T23:54:53.698Z,16.20
2018-09-08T23:57:19.980Z,16.20
2018-09-08T23:59:46.217Z,16.20
